Airfield :
LOGIN :

Register | Disclaimer

   EN    FR    IT 

 










Legend :    VFR   Marginal VFR   IFR   Intensive IFR   Very Intensive IFR
Visi :
Ceiling :
>= 8 km
>= 3000ft
5 to 8 km
1000 to 3000 ft
1500m to 5 km
500 to 1000 ft
800 to 1500m
200 to 500 ft
< 800m
< 200 ft
Symbols :   Thunderstorms  Fog  Heavy snow  Heavy precipitations  Wind > 20 kt
SIGMETs :     Misc.  Thunderstorms  Icing  Turbulence  Mountain Waves  Volcanic Ashes







- Airport Elevation : 1416 ft
- IATA code : ZRH


LSZH - Zurich

CURRENT METAR :
  • 210050Z 14003KT 110V180 9999 -RA FEW045 BKN080 13/10 Q1018 NOSIG

EXPIRED METARs :
  • 202350Z 17002KT 9999 FEW050 BKN120 13/09 Q1018 NOSIG
  • 202320Z VRB02KT 9999 FEW050 BKN130 13/10 Q1018 NOSIG
  • 202250Z 14002KT 9999 FEW050 BKN130 13/10 Q1018 NOSIG
  • 202220Z 14004KT 9999 FEW070 BKN130 13/09 Q1018 NOSIG

TAF TAF LSZH
Valid from the 21 at 00:00 until the 22 at 06:00 UTC


202325Z 2100/2206 VRB03KT 9999 SCT050 BKN130 TX20/2113Z TN12/2106Z TN08/2206Z
BECMG 2107/2110 CAVOK
BECMG 2109/2111 23010KT
BECMG 2115/2118 29010KT 9999 BKN050
TEMPO 2118/2203 4500 SHRA SCT020TCU BKN040
ATIS : +41 43 816 2295 (DEP) +41 43 816 2294 (ARR)
No reported NOTAMs for that airfield.



MET'MAP, your aeronautical weather chart ! - Copyright ORBIFLY December 2007 - Disclaimer

ORBIFLY MET'MAP TEAM :

Programming & Development : Alexandra Zaïnal
Concept & Development : Baudouin d'Aumeries
Co-Development & Prog : Marc-Olivier Méhu
Technical & hardware support : Manuel Goepfert

Contact : metmap@orbifly.com




SOURCES & CREDITS :

   NOAA